sensor_id;sensor_type;location;lat;lon;timestamp;P1;durP1;ratioP1;P2;durP2;ratioP2
4595;SDS011;2310;49.978;8.742;2023-12-04T00:01:24;26.47;;;17.20;;
4595;SDS011;2310;49.978;8.742;2023-12-04T00:05:27;28.80;;;18.20;;
4595;SDS011;2310;49.978;8.742;2023-12-04T00:09:28;28.20;;;18.13;;
4595;SDS011;2310;49.978;8.742;2023-12-04T00:13:29;28.37;;;17.90;;
4595;SDS011;2310;49.978;8.742;2023-12-04T00:17:31;24.17;;;16.60;;
4595;SDS011;2310;49.978;8.742;2023-12-04T00:21:33;23.50;;;15.67;;
4595;SDS011;2310;49.978;8.742;2023-12-04T00:25:35;26.33;;;18.10;;
4595;SDS011;2310;49.978;8.742;2023-12-04T00:29:37;20.97;;;15.07;;
4595;SDS011;2310;49.978;8.742;2023-12-04T00:33:38;22.77;;;15.00;;
4595;SDS011;2310;49.978;8.742;2023-12-04T00:37:40;28.03;;;17.47;;
4595;SDS011;2310;49.978;8.742;2023-12-04T00:41:41;26.50;;;18.07;;
4595;SDS011;2310;49.978;8.742;2023-12-04T00:45:42;28.50;;;17.60;;
4595;SDS011;2310;49.978;8.742;2023-12-04T00:49:44;24.70;;;16.37;;
4595;SDS011;2310;49.978;8.742;2023-12-04T00:53:45;26.87;;;17.77;;
4595;SDS011;2310;49.978;8.742;2023-12-04T00:57:47;27.57;;;17.13;;
4595;SDS011;2310;49.978;8.742;2023-12-04T01:01:48;25.90;;;18.33;;
4595;SDS011;2310;49.978;8.742;2023-12-04T01:05:50;26.63;;;18.00;;
4595;SDS011;2310;49.978;8.742;2023-12-04T01:09:51;27.07;;;17.10;;
4595;SDS011;2310;49.978;8.742;2023-12-04T01:13:52;26.37;;;18.17;;
4595;SDS011;2310;49.978;8.742;2023-12-04T01:17:54;23.50;;;16.00;;
4595;SDS011;2310;49.978;8.742;2023-12-04T01:21:55;24.63;;;17.33;;
4595;SDS011;2310;49.978;8.742;2023-12-04T01:25:57;26.93;;;16.50;;
4595;SDS011;2310;49.978;8.742;2023-12-04T01:29:59;26.47;;;17.30;;
4595;SDS011;2310;49.978;8.742;2023-12-04T01:34:00;28.20;;;17.10;;
4595;SDS011;2310;49.978;8.742;2023-12-04T01:38:02;26.30;;;16.73;;
4595;SDS011;2310;49.978;8.742;2023-12-04T01:42:10;27.23;;;16.53;;
4595;SDS011;2310;49.978;8.742;2023-12-04T01:50:14;27.13;;;16.33;;
4595;SDS011;2310;49.978;8.742;2023-12-04T01:54:16;26.87;;;17.53;;
4595;SDS011;2310;49.978;8.742;2023-12-04T01:58:18;26.77;;;16.90;;
4595;SDS011;2310;49.978;8.742;2023-12-04T02:02:20;27.43;;;17.90;;
4595;SDS011;2310;49.978;8.742;2023-12-04T02:06:22;26.47;;;17.83;;
4595;SDS011;2310;49.978;8.742;2023-12-04T02:10:23;29.27;;;18.67;;
4595;SDS011;2310;49.978;8.742;2023-12-04T02:14:25;27.13;;;16.60;;
4595;SDS011;2310;49.978;8.742;2023-12-04T02:18:26;25.23;;;17.23;;
4595;SDS011;2310;49.978;8.742;2023-12-04T02:22:28;26.10;;;17.00;;
4595;SDS011;2310;49.978;8.742;2023-12-04T02:26:32;28.87;;;17.83;;
4595;SDS011;2310;49.978;8.742;2023-12-04T02:30:35;28.40;;;17.97;;
4595;SDS011;2310;49.978;8.742;2023-12-04T02:34:38;23.87;;;16.70;;
4595;SDS011;2310;49.978;8.742;2023-12-04T02:42:46;26.80;;;17.13;;
4595;SDS011;2310;49.978;8.742;2023-12-04T02:46:47;25.50;;;16.07;;
4595;SDS011;2310;49.978;8.742;2023-12-04T02:50:48;22.60;;;16.13;;
4595;SDS011;2310;49.978;8.742;2023-12-04T02:54:50;27.80;;;18.40;;
4595;SDS011;2310;49.978;8.742;2023-12-04T02:58:51;25.00;;;19.07;;
4595;SDS011;2310;49.978;8.742;2023-12-04T03:02:53;27.77;;;18.20;;
4595;SDS011;2310;49.978;8.742;2023-12-04T03:06:54;27.60;;;17.77;;
4595;SDS011;2310;49.978;8.742;2023-12-04T03:10:55;25.97;;;17.10;;
4595;SDS011;2310;49.978;8.742;2023-12-04T03:14:57;27.40;;;16.80;;
4595;SDS011;2310;49.978;8.742;2023-12-04T03:18:58;29.37;;;18.30;;
4595;SDS011;2310;49.978;8.742;2023-12-04T03:23:02;31.10;;;18.30;;
4595;SDS011;2310;49.978;8.742;2023-12-04T03:27:03;23.13;;;14.93;;
4595;SDS011;2310;49.978;8.742;2023-12-04T03:31:05;31.57;;;18.80;;
4595;SDS011;2310;49.978;8.742;2023-12-04T03:35:07;24.17;;;15.53;;
4595;SDS011;2310;49.978;8.742;2023-12-04T03:39:08;24.70;;;16.83;;
4595;SDS011;2310;49.978;8.742;2023-12-04T03:43:10;25.87;;;16.30;;
4595;SDS011;2310;49.978;8.742;2023-12-04T03:47:11;26.40;;;17.30;;
4595;SDS011;2310;49.978;8.742;2023-12-04T03:51:13;31.53;;;20.50;;
4595;SDS011;2310;49.978;8.742;2023-12-04T03:55:14;27.40;;;18.33;;
4595;SDS011;2310;49.978;8.742;2023-12-04T03:59:15;23.67;;;15.93;;
4595;SDS011;2310;49.978;8.742;2023-12-04T04:03:17;28.70;;;19.23;;
4595;SDS011;2310;49.978;8.742;2023-12-04T04:07:18;27.50;;;16.50;;
4595;SDS011;2310;49.978;8.742;2023-12-04T04:11:20;26.90;;;17.20;;
4595;SDS011;2310;49.978;8.742;2023-12-04T04:15:22;27.07;;;17.07;;
4595;SDS011;2310;49.978;8.742;2023-12-04T04:19:23;25.97;;;18.00;;
4595;SDS011;2310;49.978;8.742;2023-12-04T04:23:25;25.43;;;17.10;;
4595;SDS011;2310;49.978;8.742;2023-12-04T04:27:26;30.43;;;17.83;;
4595;SDS011;2310;49.978;8.742;2023-12-04T04:31:28;28.10;;;17.90;;
4595;SDS011;2310;49.978;8.742;2023-12-04T04:35:29;26.23;;;17.30;;
4595;SDS011;2310;49.978;8.742;2023-12-04T04:39:30;27.33;;;16.80;;
4595;SDS011;2310;49.978;8.742;2023-12-04T04:43:32;25.70;;;18.10;;
4595;SDS011;2310;49.978;8.742;2023-12-04T04:47:34;26.30;;;16.13;;
4595;SDS011;2310;49.978;8.742;2023-12-04T04:51:35;26.67;;;17.53;;
4595;SDS011;2310;49.978;8.742;2023-12-04T04:55:37;26.10;;;18.00;;
4595;SDS011;2310;49.978;8.742;2023-12-04T04:59:40;28.23;;;17.97;;
4595;SDS011;2310;49.978;8.742;2023-12-04T05:03:41;28.67;;;17.50;;
4595;SDS011;2310;49.978;8.742;2023-12-04T05:07:43;28.10;;;18.57;;
4595;SDS011;2310;49.978;8.742;2023-12-04T05:11:44;25.53;;;18.07;;
4595;SDS011;2310;49.978;8.742;2023-12-04T05:15:46;26.30;;;17.00;;
4595;SDS011;2310;49.978;8.742;2023-12-04T05:19:47;24.53;;;18.43;;
4595;SDS011;2310;49.978;8.742;2023-12-04T05:23:50;26.67;;;17.90;;
4595;SDS011;2310;49.978;8.742;2023-12-04T05:27:51;30.07;;;17.60;;
4595;SDS011;2310;49.978;8.742;2023-12-04T05:31:53;22.40;;;15.90;;
4595;SDS011;2310;49.978;8.742;2023-12-04T05:35:54;27.80;;;17.23;;
4595;SDS011;2310;49.978;8.742;2023-12-04T05:39:56;29.37;;;17.93;;
4595;SDS011;2310;49.978;8.742;2023-12-04T05:43:57;27.30;;;17.70;;
4595;SDS011;2310;49.978;8.742;2023-12-04T05:47:58;26.90;;;18.13;;
4595;SDS011;2310;49.978;8.742;2023-12-04T05:52:01;23.87;;;15.50;;
4595;SDS011;2310;49.978;8.742;2023-12-04T05:56:02;27.50;;;17.10;;
4595;SDS011;2310;49.978;8.742;2023-12-04T06:00:06;26.23;;;15.60;;
4595;SDS011;2310;49.978;8.742;2023-12-04T06:04:12;23.87;;;17.17;;
4595;SDS011;2310;49.978;8.742;2023-12-04T06:08:14;24.63;;;16.60;;
4595;SDS011;2310;49.978;8.742;2023-12-04T06:12:15;25.20;;;16.57;;
4595;SDS011;2310;49.978;8.742;2023-12-04T06:16:17;28.30;;;17.50;;
4595;SDS011;2310;49.978;8.742;2023-12-04T06:20:18;24.73;;;15.43;;
4595;SDS011;2310;49.978;8.742;2023-12-04T06:24:20;22.93;;;16.93;;
4595;SDS011;2310;49.978;8.742;2023-12-04T06:28:22;25.30;;;16.20;;
4595;SDS011;2310;49.978;8.742;2023-12-04T06:32:24;24.70;;;15.90;;
4595;SDS011;2310;49.978;8.742;2023-12-04T06:36:25;25.70;;;15.17;;
4595;SDS011;2310;49.978;8.742;2023-12-04T06:40:30;23.30;;;16.00;;
4595;SDS011;2310;49.978;8.742;2023-12-04T06:44:33;24.70;;;15.70;;
4595;SDS011;2310;49.978;8.742;2023-12-04T06:48:35;27.40;;;16.23;;
4595;SDS011;2310;49.978;8.742;2023-12-04T06:52:36;25.67;;;15.40;;
4595;SDS011;2310;49.978;8.742;2023-12-04T06:56:38;21.77;;;14.97;;
4595;SDS011;2310;49.978;8.742;2023-12-04T07:00:39;24.43;;;15.40;;
4595;SDS011;2310;49.978;8.742;2023-12-04T07:04:41;21.13;;;16.07;;
4595;SDS011;2310;49.978;8.742;2023-12-04T07:08:43;26.50;;;14.73;;
4595;SDS011;2310;49.978;8.742;2023-12-04T07:12:44;28.13;;;16.77;;
4595;SDS011;2310;49.978;8.742;2023-12-04T07:16:46;22.00;;;15.17;;
4595;SDS011;2310;49.978;8.742;2023-12-04T07:20:47;25.63;;;16.27;;
4595;SDS011;2310;49.978;8.742;2023-12-04T07:24:49;28.47;;;19.80;;
4595;SDS011;2310;49.978;8.742;2023-12-04T07:28:50;26.90;;;15.97;;
4595;SDS011;2310;49.978;8.742;2023-12-04T07:32:52;24.33;;;17.00;;
4595;SDS011;2310;49.978;8.742;2023-12-04T07:36:54;22.70;;;16.70;;
4595;SDS011;2310;49.978;8.742;2023-12-04T07:40:55;38.57;;;23.13;;
4595;SDS011;2310;49.978;8.742;2023-12-04T07:44:57;25.57;;;18.67;;
4595;SDS011;2310;49.978;8.742;2023-12-04T07:48:58;24.33;;;17.43;;
4595;SDS011;2310;49.978;8.742;2023-12-04T07:53:00;26.17;;;17.43;;
4595;SDS011;2310;49.978;8.742;2023-12-04T07:57:01;24.80;;;15.33;;
4595;SDS011;2310;49.978;8.742;2023-12-04T08:01:03;18.70;;;14.10;;
4595;SDS011;2310;49.978;8.742;2023-12-04T08:05:04;22.60;;;14.30;;
4595;SDS011;2310;49.978;8.742;2023-12-04T08:09:07;24.90;;;17.40;;
4595;SDS011;2310;49.978;8.742;2023-12-04T08:13:10;23.13;;;15.57;;
4595;SDS011;2310;49.978;8.742;2023-12-04T08:17:12;26.40;;;18.00;;
4595;SDS011;2310;49.978;8.742;2023-12-04T08:21:13;26.33;;;16.20;;
4595;SDS011;2310;49.978;8.742;2023-12-04T08:25:15;23.23;;;15.73;;
4595;SDS011;2310;49.978;8.742;2023-12-04T08:29:16;24.50;;;16.00;;
4595;SDS011;2310;49.978;8.742;2023-12-04T08:33:18;24.80;;;16.93;;
4595;SDS011;2310;49.978;8.742;2023-12-04T08:37:21;26.07;;;17.13;;
4595;SDS011;2310;49.978;8.742;2023-12-04T08:41:22;23.03;;;16.33;;
4595;SDS011;2310;49.978;8.742;2023-12-04T08:45:24;21.50;;;14.67;;
4595;SDS011;2310;49.978;8.742;2023-12-04T08:49:25;24.30;;;15.50;;
4595;SDS011;2310;49.978;8.742;2023-12-04T08:53:28;19.27;;;14.13;;
4595;SDS011;2310;49.978;8.742;2023-12-04T08:57:29;25.93;;;15.47;;
4595;SDS011;2310;49.978;8.742;2023-12-04T09:01:31;22.00;;;15.90;;
4595;SDS011;2310;49.978;8.742;2023-12-04T09:05:33;22.40;;;14.20;;
4595;SDS011;2310;49.978;8.742;2023-12-04T09:09:35;22.07;;;14.83;;
4595;SDS011;2310;49.978;8.742;2023-12-04T09:13:36;22.33;;;15.60;;
4595;SDS011;2310;49.978;8.742;2023-12-04T09:17:38;21.17;;;14.57;;
4595;SDS011;2310;49.978;8.742;2023-12-04T09:21:40;18.63;;;13.17;;
4595;SDS011;2310;49.978;8.742;2023-12-04T09:25:42;21.20;;;14.80;;
4595;SDS011;2310;49.978;8.742;2023-12-04T09:29:43;23.13;;;15.90;;
4595;SDS011;2310;49.978;8.742;2023-12-04T09:33:45;21.07;;;15.93;;
4595;SDS011;2310;49.978;8.742;2023-12-04T09:37:46;20.43;;;14.13;;
4595;SDS011;2310;49.978;8.742;2023-12-04T09:41:50;20.17;;;13.93;;
4595;SDS011;2310;49.978;8.742;2023-12-04T09:45:51;21.40;;;15.37;;
4595;SDS011;2310;49.978;8.742;2023-12-04T09:49:53;18.53;;;13.87;;
4595;SDS011;2310;49.978;8.742;2023-12-04T09:53:57;21.43;;;16.50;;
4595;SDS011;2310;49.978;8.742;2023-12-04T09:58:02;20.90;;;15.00;;
4595;SDS011;2310;49.978;8.742;2023-12-04T10:02:04;20.50;;;14.73;;
4595;SDS011;2310;49.978;8.742;2023-12-04T10:06:07;21.50;;;13.63;;
4595;SDS011;2310;49.978;8.742;2023-12-04T10:10:09;20.17;;;13.37;;
4595;SDS011;2310;49.978;8.742;2023-12-04T10:14:17;21.43;;;14.83;;
4595;SDS011;2310;49.978;8.742;2023-12-04T10:18:32;21.10;;;14.23;;
4595;SDS011;2310;49.978;8.742;2023-12-04T10:22:34;23.13;;;16.43;;
4595;SDS011;2310;49.978;8.742;2023-12-04T10:26:36;21.67;;;15.27;;
4595;SDS011;2310;49.978;8.742;2023-12-04T10:30:37;17.17;;;13.00;;
4595;SDS011;2310;49.978;8.742;2023-12-04T10:34:43;16.03;;;12.90;;
4595;SDS011;2310;49.978;8.742;2023-12-04T10:38:44;25.43;;;14.70;;
4595;SDS011;2310;49.978;8.742;2023-12-04T10:42:45;21.40;;;15.00;;
4595;SDS011;2310;49.978;8.742;2023-12-04T10:46:47;21.53;;;13.90;;
4595;SDS011;2310;49.978;8.742;2023-12-04T10:50:48;17.67;;;14.10;;
4595;SDS011;2310;49.978;8.742;2023-12-04T10:54:50;21.00;;;14.67;;
4595;SDS011;2310;49.978;8.742;2023-12-04T10:58:52;21.33;;;14.87;;
4595;SDS011;2310;49.978;8.742;2023-12-04T11:02:55;20.13;;;14.90;;
4595;SDS011;2310;49.978;8.742;2023-12-04T11:06:57;19.93;;;14.17;;
4595;SDS011;2310;49.978;8.742;2023-12-04T11:11:03;19.23;;;13.80;;
4595;SDS011;2310;49.978;8.742;2023-12-04T11:15:07;19.30;;;13.40;;
4595;SDS011;2310;49.978;8.742;2023-12-04T11:23:21;20.00;;;13.63;;
4595;SDS011;2310;49.978;8.742;2023-12-04T11:27:23;18.43;;;12.57;;
4595;SDS011;2310;49.978;8.742;2023-12-04T11:31:25;21.10;;;14.13;;
4595;SDS011;2310;49.978;8.742;2023-12-04T11:35:27;18.60;;;13.37;;
4595;SDS011;2310;49.978;8.742;2023-12-04T11:39:28;20.07;;;13.67;;
4595;SDS011;2310;49.978;8.742;2023-12-04T11:43:31;19.07;;;13.90;;
4595;SDS011;2310;49.978;8.742;2023-12-04T11:47:52;20.83;;;14.17;;
4595;SDS011;2310;49.978;8.742;2023-12-04T11:51:58;19.23;;;13.13;;
4595;SDS011;2310;49.978;8.742;2023-12-04T11:56:08;19.67;;;13.60;;
4595;SDS011;2310;49.978;8.742;2023-12-04T12:04:22;18.20;;;13.10;;
4595;SDS011;2310;49.978;8.742;2023-12-04T12:08:24;21.60;;;15.10;;
4595;SDS011;2310;49.978;8.742;2023-12-04T12:12:26;20.93;;;14.40;;
4595;SDS011;2310;49.978;8.742;2023-12-04T12:16:28;28.63;;;15.37;;
4595;SDS011;2310;49.978;8.742;2023-12-04T12:20:35;21.23;;;14.83;;
4595;SDS011;2310;49.978;8.742;2023-12-04T12:24:37;19.13;;;14.13;;
4595;SDS011;2310;49.978;8.742;2023-12-04T12:28:40;21.80;;;14.70;;
4595;SDS011;2310;49.978;8.742;2023-12-04T12:32:41;26.77;;;16.80;;
4595;SDS011;2310;49.978;8.742;2023-12-04T12:36:43;24.70;;;18.17;;
4595;SDS011;2310;49.978;8.742;2023-12-04T12:40:44;20.63;;;14.67;;
4595;SDS011;2310;49.978;8.742;2023-12-04T12:44:45;23.73;;;15.50;;
4595;SDS011;2310;49.978;8.742;2023-12-04T12:48:47;22.73;;;16.00;;
4595;SDS011;2310;49.978;8.742;2023-12-04T12:52:49;23.70;;;16.23;;
4595;SDS011;2310;49.978;8.742;2023-12-04T12:56:50;24.97;;;17.47;;
4595;SDS011;2310;49.978;8.742;2023-12-04T13:00:52;24.80;;;18.47;;
4595;SDS011;2310;49.978;8.742;2023-12-04T13:04:55;23.17;;;16.60;;
4595;SDS011;2310;49.978;8.742;2023-12-04T13:08:57;23.63;;;17.10;;
4595;SDS011;2310;49.978;8.742;2023-12-04T13:12:59;28.77;;;18.03;;
4595;SDS011;2310;49.978;8.742;2023-12-04T13:17:01;25.90;;;17.63;;
4595;SDS011;2310;49.978;8.742;2023-12-04T13:21:04;24.93;;;17.83;;
4595;SDS011;2310;49.978;8.742;2023-12-04T13:25:06;23.73;;;16.87;;
4595;SDS011;2310;49.978;8.742;2023-12-04T13:29:13;26.30;;;19.20;;
4595;SDS011;2310;49.978;8.742;2023-12-04T13:33:16;27.37;;;18.73;;
4595;SDS011;2310;49.978;8.742;2023-12-04T13:37:18;20.10;;;15.70;;
4595;SDS011;2310;49.978;8.742;2023-12-04T13:41:19;25.63;;;18.67;;
4595;SDS011;2310;49.978;8.742;2023-12-04T13:45:39;27.60;;;18.43;;
4595;SDS011;2310;49.978;8.742;2023-12-04T13:49:41;26.20;;;18.47;;
4595;SDS011;2310;49.978;8.742;2023-12-04T13:53:42;27.53;;;20.17;;
4595;SDS011;2310;49.978;8.742;2023-12-04T13:57:48;27.00;;;17.27;;
4595;SDS011;2310;49.978;8.742;2023-12-04T14:01:58;27.23;;;18.37;;
4595;SDS011;2310;49.978;8.742;2023-12-04T14:06:02;25.63;;;18.77;;
4595;SDS011;2310;49.978;8.742;2023-12-04T14:10:04;26.63;;;18.67;;
4595;SDS011;2310;49.978;8.742;2023-12-04T14:14:06;24.93;;;17.20;;
4595;SDS011;2310;49.978;8.742;2023-12-04T14:18:08;26.33;;;17.40;;
4595;SDS011;2310;49.978;8.742;2023-12-04T14:22:09;21.37;;;15.80;;
4595;SDS011;2310;49.978;8.742;2023-12-04T14:26:11;26.07;;;17.97;;
4595;SDS011;2310;49.978;8.742;2023-12-04T14:30:12;23.27;;;16.70;;
4595;SDS011;2310;49.978;8.742;2023-12-04T14:34:15;24.10;;;17.37;;
4595;SDS011;2310;49.978;8.742;2023-12-04T14:38:16;19.90;;;15.27;;
4595;SDS011;2310;49.978;8.742;2023-12-04T14:42:17;23.57;;;16.33;;
4595;SDS011;2310;49.978;8.742;2023-12-04T14:46:19;26.17;;;18.10;;
4595;SDS011;2310;49.978;8.742;2023-12-04T14:50:20;21.03;;;13.83;;
4595;SDS011;2310;49.978;8.742;2023-12-04T14:54:21;22.60;;;15.83;;
4595;SDS011;2310;49.978;8.742;2023-12-04T14:58:25;21.40;;;15.80;;
4595;SDS011;2310;49.978;8.742;2023-12-04T15:02:43;22.80;;;16.87;;
4595;SDS011;2310;49.978;8.742;2023-12-04T15:06:46;22.53;;;16.67;;
4595;SDS011;2310;49.978;8.742;2023-12-04T15:11:06;20.57;;;15.47;;
4595;SDS011;2310;49.978;8.742;2023-12-04T15:15:09;20.70;;;14.90;;
4595;SDS011;2310;49.978;8.742;2023-12-04T15:19:13;24.13;;;16.43;;
4595;SDS011;2310;49.978;8.742;2023-12-04T15:23:16;24.13;;;16.40;;
4595;SDS011;2310;49.978;8.742;2023-12-04T15:27:19;24.37;;;17.67;;
4595;SDS011;2310;49.978;8.742;2023-12-04T15:31:21;21.30;;;15.40;;
4595;SDS011;2310;49.978;8.742;2023-12-04T15:35:22;32.30;;;23.80;;
4595;SDS011;2310;49.978;8.742;2023-12-04T15:39:23;22.47;;;15.50;;
4595;SDS011;2310;49.978;8.742;2023-12-04T15:43:25;24.63;;;16.47;;
4595;SDS011;2310;49.978;8.742;2023-12-04T15:47:27;20.90;;;15.40;;
4595;SDS011;2310;49.978;8.742;2023-12-04T15:51:28;23.90;;;16.60;;
4595;SDS011;2310;49.978;8.742;2023-12-04T15:55:29;27.50;;;17.87;;
4595;SDS011;2310;49.978;8.742;2023-12-04T15:59:31;26.23;;;16.80;;
4595;SDS011;2310;49.978;8.742;2023-12-04T16:03:32;22.37;;;15.50;;
4595;SDS011;2310;49.978;8.742;2023-12-04T16:07:34;26.87;;;16.27;;
4595;SDS011;2310;49.978;8.742;2023-12-04T16:11:35;23.90;;;16.07;;
4595;SDS011;2310;49.978;8.742;2023-12-04T16:15:37;25.27;;;16.07;;
4595;SDS011;2310;49.978;8.742;2023-12-04T16:19:39;28.90;;;17.17;;
4595;SDS011;2310;49.978;8.742;2023-12-04T16:23:40;24.77;;;15.97;;
4595;SDS011;2310;49.978;8.742;2023-12-04T16:27:41;24.20;;;16.40;;
4595;SDS011;2310;49.978;8.742;2023-12-04T16:31:43;24.57;;;17.37;;
4595;SDS011;2310;49.978;8.742;2023-12-04T16:35:45;29.10;;;17.53;;
4595;SDS011;2310;49.978;8.742;2023-12-04T16:39:46;31.77;;;20.47;;
4595;SDS011;2310;49.978;8.742;2023-12-04T16:43:47;28.87;;;19.50;;
4595;SDS011;2310;49.978;8.742;2023-12-04T16:47:49;22.17;;;16.87;;
4595;SDS011;2310;49.978;8.742;2023-12-04T16:51:51;26.20;;;16.97;;
4595;SDS011;2310;49.978;8.742;2023-12-04T16:55:53;22.83;;;18.90;;
4595;SDS011;2310;49.978;8.742;2023-12-04T16:59:54;27.10;;;19.10;;
4595;SDS011;2310;49.978;8.742;2023-12-04T17:03:57;51.93;;;34.53;;
4595;SDS011;2310;49.978;8.742;2023-12-04T17:08:00;36.53;;;20.30;;
4595;SDS011;2310;49.978;8.742;2023-12-04T17:12:01;37.23;;;26.00;;
4595;SDS011;2310;49.978;8.742;2023-12-04T17:16:03;43.17;;;33.97;;
4595;SDS011;2310;49.978;8.742;2023-12-04T17:20:06;32.77;;;23.50;;
4595;SDS011;2310;49.978;8.742;2023-12-04T17:24:07;29.53;;;20.07;;
4595;SDS011;2310;49.978;8.742;2023-12-04T17:28:09;27.63;;;20.83;;
4595;SDS011;2310;49.978;8.742;2023-12-04T17:32:10;28.97;;;19.90;;
4595;SDS011;2310;49.978;8.742;2023-12-04T17:36:12;26.47;;;18.83;;
4595;SDS011;2310;49.978;8.742;2023-12-04T17:40:13;25.00;;;19.03;;
4595;SDS011;2310;49.978;8.742;2023-12-04T17:44:15;26.27;;;18.37;;
4595;SDS011;2310;49.978;8.742;2023-12-04T17:48:17;28.90;;;20.03;;
4595;SDS011;2310;49.978;8.742;2023-12-04T17:52:18;25.80;;;18.50;;
4595;SDS011;2310;49.978;8.742;2023-12-04T17:56:21;26.93;;;19.23;;
4595;SDS011;2310;49.978;8.742;2023-12-04T18:00:22;31.67;;;22.30;;
4595;SDS011;2310;49.978;8.742;2023-12-04T18:04:24;27.07;;;20.40;;
4595;SDS011;2310;49.978;8.742;2023-12-04T18:08:25;28.40;;;21.10;;
4595;SDS011;2310;49.978;8.742;2023-12-04T18:12:29;27.23;;;19.80;;
4595;SDS011;2310;49.978;8.742;2023-12-04T18:16:31;30.23;;;20.50;;
4595;SDS011;2310;49.978;8.742;2023-12-04T18:20:32;23.87;;;18.33;;
4595;SDS011;2310;49.978;8.742;2023-12-04T18:24:33;25.77;;;20.33;;
4595;SDS011;2310;49.978;8.742;2023-12-04T18:28:35;27.57;;;21.13;;
4595;SDS011;2310;49.978;8.742;2023-12-04T18:32:37;27.80;;;19.77;;
4595;SDS011;2310;49.978;8.742;2023-12-04T18:36:43;27.20;;;18.50;;
4595;SDS011;2310;49.978;8.742;2023-12-04T18:40:47;27.63;;;19.13;;
4595;SDS011;2310;49.978;8.742;2023-12-04T18:44:49;26.40;;;20.20;;
4595;SDS011;2310;49.978;8.742;2023-12-04T18:48:51;26.07;;;19.20;;
4595;SDS011;2310;49.978;8.742;2023-12-04T18:52:55;29.10;;;19.70;;
4595;SDS011;2310;49.978;8.742;2023-12-04T18:56:56;27.70;;;20.40;;
4595;SDS011;2310;49.978;8.742;2023-12-04T19:01:00;28.63;;;19.73;;
4595;SDS011;2310;49.978;8.742;2023-12-04T19:05:01;31.17;;;20.40;;
4595;SDS011;2310;49.978;8.742;2023-12-04T19:09:03;25.43;;;18.77;;
4595;SDS011;2310;49.978;8.742;2023-12-04T19:13:05;30.57;;;23.00;;
4595;SDS011;2310;49.978;8.742;2023-12-04T19:17:07;28.30;;;20.40;;
4595;SDS011;2310;49.978;8.742;2023-12-04T19:21:08;29.30;;;20.87;;
4595;SDS011;2310;49.978;8.742;2023-12-04T19:25:10;23.70;;;17.43;;
4595;SDS011;2310;49.978;8.742;2023-12-04T19:29:12;33.07;;;21.00;;
4595;SDS011;2310;49.978;8.742;2023-12-04T19:33:15;30.37;;;22.47;;
4595;SDS011;2310;49.978;8.742;2023-12-04T19:37:18;28.23;;;19.20;;
4595;SDS011;2310;49.978;8.742;2023-12-04T19:41:28;26.83;;;19.13;;
4595;SDS011;2310;49.978;8.742;2023-12-04T19:45:32;28.87;;;19.60;;
4595;SDS011;2310;49.978;8.742;2023-12-04T19:49:33;26.67;;;19.70;;
4595;SDS011;2310;49.978;8.742;2023-12-04T19:53:35;27.83;;;20.50;;
4595;SDS011;2310;49.978;8.742;2023-12-04T19:57:36;31.37;;;20.80;;
4595;SDS011;2310;49.978;8.742;2023-12-04T20:01:37;27.70;;;20.97;;
4595;SDS011;2310;49.978;8.742;2023-12-04T20:05:39;25.93;;;19.33;;
4595;SDS011;2310;49.978;8.742;2023-12-04T20:09:41;26.27;;;19.43;;
4595;SDS011;2310;49.978;8.742;2023-12-04T20:13:42;23.77;;;18.87;;
4595;SDS011;2310;49.978;8.742;2023-12-04T20:17:43;27.60;;;22.53;;
4595;SDS011;2310;49.978;8.742;2023-12-04T20:21:45;27.43;;;19.13;;
4595;SDS011;2310;49.978;8.742;2023-12-04T20:25:46;28.20;;;20.50;;
4595;SDS011;2310;49.978;8.742;2023-12-04T20:29:48;26.80;;;21.10;;
4595;SDS011;2310;49.978;8.742;2023-12-04T20:33:49;30.03;;;21.90;;
4595;SDS011;2310;49.978;8.742;2023-12-04T20:37:50;27.70;;;18.87;;
4595;SDS011;2310;49.978;8.742;2023-12-04T20:41:52;27.30;;;18.97;;
4595;SDS011;2310;49.978;8.742;2023-12-04T20:45:54;26.00;;;20.30;;
4595;SDS011;2310;49.978;8.742;2023-12-04T20:49:55;26.80;;;19.93;;
4595;SDS011;2310;49.978;8.742;2023-12-04T20:53:56;28.10;;;20.20;;
4595;SDS011;2310;49.978;8.742;2023-12-04T20:57:58;27.20;;;21.87;;
4595;SDS011;2310;49.978;8.742;2023-12-04T21:02:01;29.63;;;21.20;;
4595;SDS011;2310;49.978;8.742;2023-12-04T21:06:03;28.90;;;20.73;;
4595;SDS011;2310;49.978;8.742;2023-12-04T21:10:05;26.87;;;20.57;;
4595;SDS011;2310;49.978;8.742;2023-12-04T21:14:07;27.93;;;20.77;;
4595;SDS011;2310;49.978;8.742;2023-12-04T21:18:08;25.97;;;20.10;;
4595;SDS011;2310;49.978;8.742;2023-12-04T21:22:10;29.93;;;21.87;;
4595;SDS011;2310;49.978;8.742;2023-12-04T21:26:11;35.37;;;22.27;;
4595;SDS011;2310;49.978;8.742;2023-12-04T21:30:13;30.90;;;21.10;;
4595;SDS011;2310;49.978;8.742;2023-12-04T21:34:15;31.77;;;23.17;;
4595;SDS011;2310;49.978;8.742;2023-12-04T21:38:22;30.67;;;21.40;;
4595;SDS011;2310;49.978;8.742;2023-12-04T21:42:24;30.90;;;22.60;;
4595;SDS011;2310;49.978;8.742;2023-12-04T21:46:26;31.07;;;21.37;;
4595;SDS011;2310;49.978;8.742;2023-12-04T21:50:27;28.80;;;22.90;;
4595;SDS011;2310;49.978;8.742;2023-12-04T21:54:28;31.40;;;21.97;;
4595;SDS011;2310;49.978;8.742;2023-12-04T21:58:30;31.40;;;23.00;;
4595;SDS011;2310;49.978;8.742;2023-12-04T22:02:32;32.50;;;24.27;;
4595;SDS011;2310;49.978;8.742;2023-12-04T22:06:34;29.40;;;21.37;;
4595;SDS011;2310;49.978;8.742;2023-12-04T22:10:35;33.10;;;23.30;;
4595;SDS011;2310;49.978;8.742;2023-12-04T22:14:36;31.40;;;21.93;;
4595;SDS011;2310;49.978;8.742;2023-12-04T22:18:38;30.27;;;22.10;;
4595;SDS011;2310;49.978;8.742;2023-12-04T22:22:39;34.63;;;23.60;;
4595;SDS011;2310;49.978;8.742;2023-12-04T22:26:40;30.37;;;23.23;;
4595;SDS011;2310;49.978;8.742;2023-12-04T22:30:42;28.90;;;21.87;;
4595;SDS011;2310;49.978;8.742;2023-12-04T22:34:43;32.30;;;24.33;;
4595;SDS011;2310;49.978;8.742;2023-12-04T22:38:44;32.37;;;23.80;;
4595;SDS011;2310;49.978;8.742;2023-12-04T22:42:46;32.40;;;21.70;;
4595;SDS011;2310;49.978;8.742;2023-12-04T22:46:48;31.70;;;22.20;;
4595;SDS011;2310;49.978;8.742;2023-12-04T22:50:49;29.53;;;22.20;;
4595;SDS011;2310;49.978;8.742;2023-12-04T22:54:51;34.47;;;24.10;;
4595;SDS011;2310;49.978;8.742;2023-12-04T22:58:53;33.53;;;23.10;;
4595;SDS011;2310;49.978;8.742;2023-12-04T23:02:54;32.30;;;22.20;;
4595;SDS011;2310;49.978;8.742;2023-12-04T23:06:56;32.20;;;24.03;;
4595;SDS011;2310;49.978;8.742;2023-12-04T23:10:57;29.53;;;22.57;;
4595;SDS011;2310;49.978;8.742;2023-12-04T23:14:59;31.93;;;23.53;;
4595;SDS011;2310;49.978;8.742;2023-12-04T23:19:00;27.70;;;22.50;;
4595;SDS011;2310;49.978;8.742;2023-12-04T23:23:02;32.63;;;22.83;;
4595;SDS011;2310;49.978;8.742;2023-12-04T23:27:04;31.73;;;23.00;;
4595;SDS011;2310;49.978;8.742;2023-12-04T23:31:05;30.20;;;23.13;;
4595;SDS011;2310;49.978;8.742;2023-12-04T23:35:08;30.10;;;21.87;;
4595;SDS011;2310;49.978;8.742;2023-12-04T23:39:11;32.03;;;23.30;;
4595;SDS011;2310;49.978;8.742;2023-12-04T23:43:13;34.50;;;22.47;;
4595;SDS011;2310;49.978;8.742;2023-12-04T23:47:15;30.77;;;22.67;;
4595;SDS011;2310;49.978;8.742;2023-12-04T23:51:16;32.87;;;22.60;;
4595;SDS011;2310;49.978;8.742;2023-12-04T23:55:17;31.33;;;23.60;;
4595;SDS011;2310;49.978;8.742;2023-12-04T23:59:19;29.67;;;21.13;;
